Private Wetterstation Nrnberg - Katzwang
Wetterdaten: Juli 2011
Datum Temp. A. Feuchte A. Luftdruck Regen Wind Richtung Taupunkt Windchill Windben
01.07.2011 13,1 C 77 % 1018 hPa 4,1 l/m 2,6 km/h W-NW 9,1 C 12,7 C 3,6 km/h
02.07.2011 14,3 C 65 % 1013 hPa 0,0 l/m 2,2 km/h W-NW 7,4 C 14,1 C 3,2 km/h
03.07.2011 12,5 C 85 % 1012 hPa 9,3 l/m 1,7 km/h W-NW 10,0 C 12,5 C 2,7 km/h
04.07.2011 17,8 C 80 % 1013 hPa 0,5 l/m 0,7 km/h N-NO 14,2 C 17,8 C 1,7 km/h
05.07.2011 20,2 C 72 % 1011 hPa 0,0 l/m 1,7 km/h O 14,9 C 20,2 C 2,7 km/h
06.07.2011 22,8 C 59 % 1009 hPa 0,0 l/m 0,7 km/h W-NW 13,7 C 22,8 C 1,7 km/h
07.07.2011 19,6 C 76 % 1009 hPa 12,4 l/m 8,1 km/h NO 14,9 C 18,9 C 9,1 km/h
08.07.2011 20,8 C 68 % 1012 hPa 4,1 l/m 5,8 km/h W-NW 14,3 C 20,6 C 6,8 km/h
09.07.2011 23,2 C 61 % 1015 hPa 0,0 l/m 4,9 km/h NO 14,8 C 22,8 C 5,9 km/h
10.07.2011 21,6 C 75 % 1015 hPa 11,9 l/m 2,2 km/h N-NO 16,5 C 21,5 C 3,2 km/h
11.07.2011 20,7 C 68 % 1017 hPa 0,5 l/m 4,8 km/h N-NO 14,2 C 20,3 C 5,8 km/h
12.07.2011 23,0 C 64 % 1011 hPa 1,0 l/m 4,4 km/h O 15,3 C 22,8 C 7,5 km/h
13.07.2011 21,6 C 80 % 1006 hPa 4,1 l/m 4,4 km/h N-NO 17,9 C 21,1 C 5,4 km/h
14.07.2011 16,9 C 62 % 1015 hPa 0,0 l/m 1,4 km/h W-NW 9,3 C 16,9 C 2,4 km/h
15.07.2011 16,9 C 61 % 1017 hPa 0,0 l/m 3,1 km/h W-NW 8,9 C 16,6 C 4,1 km/h
16.07.2011 20,0 C 58 % 1009 hPa 0,5 l/m 5,3 km/h NO 10,7 C 19,8 C 6,3 km/h
17.07.2011 16,6 C 76 % 1004 hPa 5,2 l/m 7,4 km/h W-NW 12,2 C 16,1 C 8,4 km/h
18.07.2011 16,1 C 73 % 1006 hPa 0,0 l/m 4,8 km/h N-NO 11,0 C 15,5 C 8,5 km/h
19.07.2011 18,9 C 67 % 1002 hPa 2,6 l/m 4,8 km/h N-NO 12,4 C 18,8 C 5,8 km/h
20.07.2011 14,4 C 88 % 1005 hPa 51,8 l/m 6,7 km/h W-NW 12,4 C 12,6 C 7,7 km/h
21.07.2011 17,0 C 80 % 1006 hPa 5,2 l/m 1,4 km/h W-NW 13,3 C 17,0 C 2,4 km/h
22.07.2011 16,8 C 71 % 1008 hPa 0,5 l/m 4,1 km/h W-NW 11,5 C 16,7 C 5,1 km/h
23.07.2011 16,0 C 63 % 1008 hPa 0,0 l/m 1,7 km/h W-NW 8,7 C 15,9 C 2,7 km/h
24.07.2011 14,1 C 69 % 1009 hPa 0,0 l/m 4,1 km/h W-NW 8,4 C 13,1 C 5,1 km/h
25.07.2011 15,3 C 74 % 1009 hPa 0,0 l/m 3,6 km/h NO 10,5 C 15,1 C 4,6 km/h
26.07.2011 18,1 C 67 % 1011 hPa 0,0 l/m 0,0 km/h NO 11,5 C 18,1 C 1,0 km/h
27.07.2011 20,2 C 61 % 1014 hPa 0,0 l/m 0,0 km/h NO 12,0 C 20,2 C 1,0 km/h
28.07.2011 19,5 C 66 % 1015 hPa 0,0 l/m 0,5 km/h N-NO 12,6 C 19,5 C 1,5 km/h
29.07.2011 19,4 C 75 % 1014 hPa 3,1 l/m 8,8 km/h W-NW 14,4 C 18,0 C 9,8 km/h
30.07.2011 14,4 C 81 % 1014 hPa 1,0 l/m 7,2 km/h W-NW 11,1 C 13,3 C 8,2 km/h
31.07.2011 14,1 C 80 % 1014 hPa 0,0 l/m 3,1 km/h W-NW 10,7 C 13,4 C 4,1 km/h
Min-Datum 02.07.11 06.07.11 19.07.11 17 Tage 01.07.11 - 02.07.11 03.07.11 01.07.11
Min-Zeit 04:50 14:20 18:50 - 00:00 - 04:50 10:20 00:00
Minimum 7,9 C 34 % 1000 hPa - 0,0 km/h - 5,7 C 4,7 C 1,0 km/h
Max-Datum 06.07.11 20.07.11 01.07.11 20.07.11 20.07.11 - 13.07.11 06.07.11 20.07.11
Max-Zeit 15:00 07:00 00:00 00:30 23:20 - 18:40 15:00 04:30
Maximum 30,3 C 89 % 1020 hPa 51,8 l/m 28,7 km/h
W-NW
- 19,7 C 30,3 C 53,0 km/h
W-NW
Durchschnitt 17,9 C 71 % 1011 hPa #118,1 l/m 3,6 km/h W-NW 12,2 C 17,6 C 4,8 km/h

Durchschnitt Minimum Temp.12,9 C
Durchschnitt Maximum Temp.23,3 C